sensor_id;sensor_type;location;lat;lon;timestamp;P1;durP1;ratioP1;P2;durP2;ratioP2
19754;SDS011;10036;47.812;9.274;2023-02-15T00:01:24;25.00;;;15.73;;
19754;SDS011;10036;47.812;9.274;2023-02-15T00:03:51;23.77;;;15.63;;
19754;SDS011;10036;47.812;9.274;2023-02-15T00:06:18;26.80;;;15.17;;
19754;SDS011;10036;47.812;9.274;2023-02-15T00:08:45;43.77;;;14.67;;
19754;SDS011;10036;47.812;9.274;2023-02-15T00:11:14;23.63;;;14.30;;
19754;SDS011;10036;47.812;9.274;2023-02-15T00:13:42;25.90;;;14.43;;
19754;SDS011;10036;47.812;9.274;2023-02-15T00:16:10;22.57;;;14.23;;
19754;SDS011;10036;47.812;9.274;2023-02-15T00:18:39;23.03;;;14.57;;
19754;SDS011;10036;47.812;9.274;2023-02-15T00:21:06;29.40;;;15.30;;
19754;SDS011;10036;47.812;9.274;2023-02-15T00:23:35;29.53;;;14.37;;
19754;SDS011;10036;47.812;9.274;2023-02-15T00:26:03;25.47;;;13.80;;
19754;SDS011;10036;47.812;9.274;2023-02-15T00:28:32;28.15;;;14.73;;
19754;SDS011;10036;47.812;9.274;2023-02-15T00:31:02;25.37;;;15.17;;
19754;SDS011;10036;47.812;9.274;2023-02-15T00:33:30;32.13;;;14.20;;
19754;SDS011;10036;47.812;9.274;2023-02-15T00:35:57;24.30;;;14.50;;
19754;SDS011;10036;47.812;9.274;2023-02-15T00:38:25;27.80;;;15.23;;
19754;SDS011;10036;47.812;9.274;2023-02-15T00:40:53;25.97;;;16.00;;
19754;SDS011;10036;47.812;9.274;2023-02-15T00:43:19;25.57;;;15.23;;
19754;SDS011;10036;47.812;9.274;2023-02-15T00:45:48;29.17;;;16.33;;
19754;SDS011;10036;47.812;9.274;2023-02-15T00:48:15;25.47;;;15.80;;
19754;SDS011;10036;47.812;9.274;2023-02-15T00:50:43;25.93;;;15.70;;
19754;SDS011;10036;47.812;9.274;2023-02-15T00:53:11;27.57;;;15.30;;
19754;SDS011;10036;47.812;9.274;2023-02-15T00:55:37;25.93;;;16.37;;
19754;SDS011;10036;47.812;9.274;2023-02-15T00:58:05;30.53;;;17.43;;
19754;SDS011;10036;47.812;9.274;2023-02-15T01:00:32;25.07;;;17.23;;
19754;SDS011;10036;47.812;9.274;2023-02-15T01:03:00;24.20;;;15.87;;
19754;SDS011;10036;47.812;9.274;2023-02-15T01:05:27;25.70;;;16.43;;
19754;SDS011;10036;47.812;9.274;2023-02-15T01:07:54;29.30;;;17.40;;
19754;SDS011;10036;47.812;9.274;2023-02-15T01:10:21;27.90;;;16.47;;
19754;SDS011;10036;47.812;9.274;2023-02-15T01:12:49;27.37;;;16.43;;
19754;SDS011;10036;47.812;9.274;2023-02-15T01:15:16;32.60;;;16.90;;
19754;SDS011;10036;47.812;9.274;2023-02-15T01:17:43;28.83;;;16.37;;
19754;SDS011;10036;47.812;9.274;2023-02-15T01:20:17;22.63;;;15.53;;
19754;SDS011;10036;47.812;9.274;2023-02-15T01:22:44;27.33;;;16.07;;
19754;SDS011;10036;47.812;9.274;2023-02-15T01:25:11;26.63;;;16.40;;
19754;SDS011;10036;47.812;9.274;2023-02-15T01:27:38;26.20;;;16.20;;
19754;SDS011;10036;47.812;9.274;2023-02-15T01:30:06;29.77;;;17.20;;
19754;SDS011;10036;47.812;9.274;2023-02-15T01:32:34;29.37;;;16.40;;
19754;SDS011;10036;47.812;9.274;2023-02-15T01:35:00;25.30;;;16.10;;
19754;SDS011;10036;47.812;9.274;2023-02-15T01:37:31;31.37;;;16.87;;
19754;SDS011;10036;47.812;9.274;2023-02-15T01:39:58;26.57;;;15.73;;
19754;SDS011;10036;47.812;9.274;2023-02-15T01:42:26;24.73;;;15.70;;
19754;SDS011;10036;47.812;9.274;2023-02-15T01:44:54;25.97;;;16.00;;
19754;SDS011;10036;47.812;9.274;2023-02-15T01:47:23;25.40;;;15.90;;
19754;SDS011;10036;47.812;9.274;2023-02-15T01:49:58;24.07;;;15.63;;
19754;SDS011;10036;47.812;9.274;2023-02-15T01:52:30;23.87;;;16.33;;
19754;SDS011;10036;47.812;9.274;2023-02-15T01:54:58;28.57;;;16.90;;
19754;SDS011;10036;47.812;9.274;2023-02-15T01:57:25;24.93;;;15.90;;
19754;SDS011;10036;47.812;9.274;2023-02-15T01:59:55;29.63;;;16.97;;
19754;SDS011;10036;47.812;9.274;2023-02-15T02:02:25;26.00;;;16.03;;
19754;SDS011;10036;47.812;9.274;2023-02-15T02:04:53;25.30;;;14.93;;
19754;SDS011;10036;47.812;9.274;2023-02-15T02:07:24;24.17;;;14.80;;
19754;SDS011;10036;47.812;9.274;2023-02-15T02:09:56;38.63;;;15.23;;
19754;SDS011;10036;47.812;9.274;2023-02-15T02:12:23;26.23;;;15.47;;
19754;SDS011;10036;47.812;9.274;2023-02-15T02:14:51;25.77;;;16.40;;
19754;SDS011;10036;47.812;9.274;2023-02-15T02:17:21;24.50;;;15.57;;
19754;SDS011;10036;47.812;9.274;2023-02-15T02:20:06;27.23;;;16.10;;
19754;SDS011;10036;47.812;9.274;2023-02-15T02:25:43;25.30;;;15.63;;
19754;SDS011;10036;47.812;9.274;2023-02-15T02:28:40;23.17;;;15.00;;
19754;SDS011;10036;47.812;9.274;2023-02-15T02:31:43;25.07;;;14.63;;
19754;SDS011;10036;47.812;9.274;2023-02-15T02:34:26;26.87;;;16.30;;
19754;SDS011;10036;47.812;9.274;2023-02-15T02:36:57;23.97;;;14.73;;
19754;SDS011;10036;47.812;9.274;2023-02-15T02:39:30;26.40;;;16.00;;
19754;SDS011;10036;47.812;9.274;2023-02-15T02:42:09;26.73;;;15.57;;
19754;SDS011;10036;47.812;9.274;2023-02-15T02:44:42;27.47;;;16.73;;
19754;SDS011;10036;47.812;9.274;2023-02-15T02:47:12;35.90;;;15.37;;
19754;SDS011;10036;47.812;9.274;2023-02-15T02:49:43;35.03;;;15.37;;
19754;SDS011;10036;47.812;9.274;2023-02-15T02:55:03;29.53;;;16.30;;
19754;SDS011;10036;47.812;9.274;2023-02-15T02:57:35;51.33;;;17.90;;
19754;SDS011;10036;47.812;9.274;2023-02-15T03:00:07;44.70;;;16.70;;
19754;SDS011;10036;47.812;9.274;2023-02-15T03:02:36;33.57;;;16.80;;
19754;SDS011;10036;47.812;9.274;2023-02-15T03:05:11;30.93;;;16.10;;
19754;SDS011;10036;47.812;9.274;2023-02-15T03:07:41;32.80;;;15.90;;
19754;SDS011;10036;47.812;9.274;2023-02-15T03:10:11;41.27;;;15.93;;
19754;SDS011;10036;47.812;9.274;2023-02-15T03:12:38;64.43;;;16.90;;
19754;SDS011;10036;47.812;9.274;2023-02-15T03:15:08;29.17;;;16.00;;
19754;SDS011;10036;47.812;9.274;2023-02-15T03:17:40;28.40;;;15.30;;
19754;SDS011;10036;47.812;9.274;2023-02-15T03:20:13;32.00;;;16.20;;
19754;SDS011;10036;47.812;9.274;2023-02-15T03:22:43;29.27;;;16.43;;
19754;SDS011;10036;47.812;9.274;2023-02-15T03:25:17;32.83;;;15.87;;
19754;SDS011;10036;47.812;9.274;2023-02-15T03:27:47;29.80;;;15.83;;
19754;SDS011;10036;47.812;9.274;2023-02-15T03:30:19;33.43;;;14.87;;
19754;SDS011;10036;47.812;9.274;2023-02-15T03:32:48;34.53;;;15.73;;
19754;SDS011;10036;47.812;9.274;2023-02-15T03:35:19;26.57;;;15.67;;
19754;SDS011;10036;47.812;9.274;2023-02-15T03:37:51;25.37;;;14.60;;
19754;SDS011;10036;47.812;9.274;2023-02-15T03:40:23;31.03;;;15.50;;
19754;SDS011;10036;47.812;9.274;2023-02-15T03:43:14;31.43;;;15.57;;
19754;SDS011;10036;47.812;9.274;2023-02-15T03:45:46;28.70;;;15.67;;
19754;SDS011;10036;47.812;9.274;2023-02-15T03:48:21;26.13;;;15.13;;
19754;SDS011;10036;47.812;9.274;2023-02-15T03:50:52;27.57;;;17.03;;
19754;SDS011;10036;47.812;9.274;2023-02-15T03:53:38;34.97;;;19.83;;
19754;SDS011;10036;47.812;9.274;2023-02-15T03:56:07;39.37;;;18.80;;
19754;SDS011;10036;47.812;9.274;2023-02-15T03:58:33;28.40;;;17.43;;
19754;SDS011;10036;47.812;9.274;2023-02-15T04:01:19;27.70;;;15.60;;
19754;SDS011;10036;47.812;9.274;2023-02-15T04:04:25;27.63;;;16.30;;
19754;SDS011;10036;47.812;9.274;2023-02-15T04:06:55;24.77;;;15.50;;
19754;SDS011;10036;47.812;9.274;2023-02-15T04:09:22;35.77;;;20.50;;
19754;SDS011;10036;47.812;9.274;2023-02-15T04:12:07;27.70;;;16.43;;
19754;SDS011;10036;47.812;9.274;2023-02-15T04:14:34;31.73;;;17.07;;
19754;SDS011;10036;47.812;9.274;2023-02-15T04:17:21;47.70;;;25.17;;
19754;SDS011;10036;47.812;9.274;2023-02-15T04:19:47;52.00;;;26.87;;
19754;SDS011;10036;47.812;9.274;2023-02-15T04:22:33;32.70;;;17.83;;
19754;SDS011;10036;47.812;9.274;2023-02-15T04:25:18;28.13;;;16.40;;
19754;SDS011;10036;47.812;9.274;2023-02-15T04:27:46;28.73;;;16.10;;
19754;SDS011;10036;47.812;9.274;2023-02-15T04:30:15;41.17;;;21.73;;
19754;SDS011;10036;47.812;9.274;2023-02-15T04:32:43;32.30;;;18.87;;
19754;SDS011;10036;47.812;9.274;2023-02-15T04:35:10;29.17;;;17.30;;
19754;SDS011;10036;47.812;9.274;2023-02-15T04:37:38;26.13;;;15.60;;
19754;SDS011;10036;47.812;9.274;2023-02-15T04:40:07;26.77;;;14.73;;
19754;SDS011;10036;47.812;9.274;2023-02-15T04:42:36;41.37;;;15.83;;
19754;SDS011;10036;47.812;9.274;2023-02-15T04:45:03;36.97;;;14.23;;
19754;SDS011;10036;47.812;9.274;2023-02-15T04:47:30;35.40;;;15.23;;
19754;SDS011;10036;47.812;9.274;2023-02-15T04:49:57;29.50;;;15.20;;
19754;SDS011;10036;47.812;9.274;2023-02-15T04:52:24;27.67;;;14.20;;
19754;SDS011;10036;47.812;9.274;2023-02-15T04:54:52;34.50;;;13.93;;
19754;SDS011;10036;47.812;9.274;2023-02-15T04:57:19;34.97;;;15.10;;
19754;SDS011;10036;47.812;9.274;2023-02-15T04:59:46;28.53;;;15.10;;
19754;SDS011;10036;47.812;9.274;2023-02-15T05:02:13;25.57;;;15.37;;
19754;SDS011;10036;47.812;9.274;2023-02-15T05:04:39;27.37;;;15.90;;
19754;SDS011;10036;47.812;9.274;2023-02-15T05:07:06;26.40;;;15.70;;
19754;SDS011;10036;47.812;9.274;2023-02-15T05:09:33;25.60;;;15.00;;
19754;SDS011;10036;47.812;9.274;2023-02-15T05:12:01;27.17;;;15.37;;
19754;SDS011;10036;47.812;9.274;2023-02-15T05:14:28;30.53;;;15.23;;
19754;SDS011;10036;47.812;9.274;2023-02-15T05:16:55;26.60;;;14.93;;
19754;SDS011;10036;47.812;9.274;2023-02-15T05:19:25;26.13;;;14.27;;
19754;SDS011;10036;47.812;9.274;2023-02-15T05:21:52;25.90;;;14.73;;
19754;SDS011;10036;47.812;9.274;2023-02-15T05:24:19;22.73;;;14.20;;
19754;SDS011;10036;47.812;9.274;2023-02-15T05:27:05;31.53;;;15.37;;
19754;SDS011;10036;47.812;9.274;2023-02-15T05:29:49;26.67;;;14.77;;
19754;SDS011;10036;47.812;9.274;2023-02-15T05:32:16;23.93;;;14.27;;
19754;SDS011;10036;47.812;9.274;2023-02-15T05:34:43;23.17;;;14.00;;
19754;SDS011;10036;47.812;9.274;2023-02-15T05:37:10;20.00;;;13.93;;
19754;SDS011;10036;47.812;9.274;2023-02-15T05:39:37;23.83;;;13.27;;
19754;SDS011;10036;47.812;9.274;2023-02-15T05:42:05;24.50;;;14.40;;
19754;SDS011;10036;47.812;9.274;2023-02-15T05:44:32;21.90;;;13.80;;
19754;SDS011;10036;47.812;9.274;2023-02-15T05:46:59;22.63;;;14.23;;
19754;SDS011;10036;47.812;9.274;2023-02-15T05:49:27;22.33;;;13.37;;
19754;SDS011;10036;47.812;9.274;2023-02-15T05:51:55;19.63;;;13.37;;
19754;SDS011;10036;47.812;9.274;2023-02-15T05:54:22;21.80;;;14.07;;
19754;SDS011;10036;47.812;9.274;2023-02-15T05:56:49;20.40;;;12.97;;
19754;SDS011;10036;47.812;9.274;2023-02-15T05:59:17;20.53;;;12.80;;
19754;SDS011;10036;47.812;9.274;2023-02-15T06:01:44;23.13;;;12.73;;
19754;SDS011;10036;47.812;9.274;2023-02-15T06:04:11;21.53;;;12.83;;
19754;SDS011;10036;47.812;9.274;2023-02-15T06:06:39;22.23;;;13.47;;
19754;SDS011;10036;47.812;9.274;2023-02-15T06:09:05;30.90;;;14.40;;
19754;SDS011;10036;47.812;9.274;2023-02-15T06:11:32;39.50;;;14.20;;
19754;SDS011;10036;47.812;9.274;2023-02-15T06:13:59;30.90;;;14.33;;
19754;SDS011;10036;47.812;9.274;2023-02-15T06:16:27;27.70;;;13.63;;
19754;SDS011;10036;47.812;9.274;2023-02-15T06:18:54;24.37;;;13.27;;
19754;SDS011;10036;47.812;9.274;2023-02-15T06:21:21;40.60;;;15.97;;
19754;SDS011;10036;47.812;9.274;2023-02-15T06:23:48;30.07;;;14.30;;
19754;SDS011;10036;47.812;9.274;2023-02-15T06:26:15;24.13;;;14.00;;
19754;SDS011;10036;47.812;9.274;2023-02-15T06:28:41;33.90;;;13.67;;
19754;SDS011;10036;47.812;9.274;2023-02-15T06:31:08;29.43;;;14.67;;
19754;SDS011;10036;47.812;9.274;2023-02-15T06:33:37;29.93;;;14.40;;
19754;SDS011;10036;47.812;9.274;2023-02-15T06:36:04;32.43;;;15.00;;
19754;SDS011;10036;47.812;9.274;2023-02-15T06:38:31;26.33;;;14.37;;
19754;SDS011;10036;47.812;9.274;2023-02-15T06:40:58;27.70;;;13.73;;
19754;SDS011;10036;47.812;9.274;2023-02-15T06:43:25;22.67;;;13.50;;
19754;SDS011;10036;47.812;9.274;2023-02-15T06:45:51;21.83;;;13.67;;
19754;SDS011;10036;47.812;9.274;2023-02-15T06:48:18;27.73;;;15.73;;
19754;SDS011;10036;47.812;9.274;2023-02-15T06:50:46;22.60;;;13.77;;
19754;SDS011;10036;47.812;9.274;2023-02-15T06:53:14;24.10;;;14.20;;
19754;SDS011;10036;47.812;9.274;2023-02-15T06:55:41;25.13;;;14.57;;
19754;SDS011;10036;47.812;9.274;2023-02-15T06:58:07;22.27;;;13.87;;
19754;SDS011;10036;47.812;9.274;2023-02-15T07:00:34;24.87;;;13.87;;
19754;SDS011;10036;47.812;9.274;2023-02-15T07:03:01;24.17;;;14.07;;
19754;SDS011;10036;47.812;9.274;2023-02-15T07:05:28;27.00;;;13.50;;
19754;SDS011;10036;47.812;9.274;2023-02-15T07:08:00;23.80;;;13.33;;
19754;SDS011;10036;47.812;9.274;2023-02-15T07:10:27;23.90;;;14.30;;
19754;SDS011;10036;47.812;9.274;2023-02-15T07:12:54;25.23;;;13.93;;
19754;SDS011;10036;47.812;9.274;2023-02-15T07:15:20;26.17;;;15.07;;
19754;SDS011;10036;47.812;9.274;2023-02-15T07:17:47;25.37;;;14.90;;
19754;SDS011;10036;47.812;9.274;2023-02-15T07:20:15;27.20;;;14.83;;
19754;SDS011;10036;47.812;9.274;2023-02-15T07:22:43;39.57;;;15.50;;
19754;SDS011;10036;47.812;9.274;2023-02-15T07:25:12;27.80;;;14.57;;
19754;SDS011;10036;47.812;9.274;2023-02-15T07:27:39;63.53;;;16.03;;
19754;SDS011;10036;47.812;9.274;2023-02-15T07:30:07;79.00;;;16.97;;
19754;SDS011;10036;47.812;9.274;2023-02-15T07:32:36;101.23;;;17.20;;
19754;SDS011;10036;47.812;9.274;2023-02-15T07:35:23;94.90;;;17.80;;
19754;SDS011;10036;47.812;9.274;2023-02-15T07:37:50;70.60;;;17.80;;
19754;SDS011;10036;47.812;9.274;2023-02-15T07:40:19;41.50;;;17.17;;
19754;SDS011;10036;47.812;9.274;2023-02-15T07:42:48;37.70;;;16.23;;
19754;SDS011;10036;47.812;9.274;2023-02-15T07:45:16;38.10;;;16.37;;
19754;SDS011;10036;47.812;9.274;2023-02-15T07:47:43;32.77;;;17.87;;
19754;SDS011;10036;47.812;9.274;2023-02-15T07:50:10;35.20;;;15.77;;
19754;SDS011;10036;47.812;9.274;2023-02-15T07:52:37;32.58;;;15.70;;
19754;SDS011;10036;47.812;9.274;2023-02-15T07:55:04;32.17;;;15.33;;
19754;SDS011;10036;47.812;9.274;2023-02-15T07:57:32;133.50;;;17.53;;
19754;SDS011;10036;47.812;9.274;2023-02-15T07:59:59;27.10;;;15.17;;
19754;SDS011;10036;47.812;9.274;2023-02-15T08:02:26;24.53;;;15.10;;
19754;SDS011;10036;47.812;9.274;2023-02-15T08:04:53;88.07;;;17.50;;
19754;SDS011;10036;47.812;9.274;2023-02-15T08:07:20;30.98;;;15.38;;
19754;SDS011;10036;47.812;9.274;2023-02-15T08:09:47;30.13;;;14.13;;
19754;SDS011;10036;47.812;9.274;2023-02-15T08:12:14;28.45;;;15.18;;
19754;SDS011;10036;47.812;9.274;2023-02-15T08:14:42;32.17;;;15.52;;
19754;SDS011;10036;47.812;9.274;2023-02-15T08:17:09;68.13;;;15.30;;
19754;SDS011;10036;47.812;9.274;2023-02-15T08:19:36;41.67;;;15.60;;
19754;SDS011;10036;47.812;9.274;2023-02-15T08:22:03;34.85;;;15.43;;
19754;SDS011;10036;47.812;9.274;2023-02-15T08:24:32;42.20;;;15.07;;
19754;SDS011;10036;47.812;9.274;2023-02-15T08:27:02;46.55;;;16.35;;
19754;SDS011;10036;47.812;9.274;2023-02-15T08:29:29;112.32;;;18.73;;
19754;SDS011;10036;47.812;9.274;2023-02-15T08:31:59;45.47;;;15.45;;
19754;SDS011;10036;47.812;9.274;2023-02-15T08:34:28;48.03;;;14.70;;
19754;SDS011;10036;47.812;9.274;2023-02-15T08:36:56;40.58;;;16.73;;
19754;SDS011;10036;47.812;9.274;2023-02-15T08:39:23;63.10;;;19.30;;
19754;SDS011;10036;47.812;9.274;2023-02-15T08:41:49;30.50;;;15.80;;
19754;SDS011;10036;47.812;9.274;2023-02-15T08:44:17;31.85;;;15.98;;
19754;SDS011;10036;47.812;9.274;2023-02-15T08:46:45;36.17;;;15.43;;
19754;SDS011;10036;47.812;9.274;2023-02-15T08:49:15;26.63;;;15.43;;
19754;SDS011;10036;47.812;9.274;2023-02-15T08:51:43;71.30;;;16.43;;
19754;SDS011;10036;47.812;9.274;2023-02-15T08:54:12;51.37;;;15.90;;
19754;SDS011;10036;47.812;9.274;2023-02-15T08:56:40;41.97;;;16.13;;
19754;SDS011;10036;47.812;9.274;2023-02-15T08:59:11;120.00;;;17.67;;
19754;SDS011;10036;47.812;9.274;2023-02-15T09:01:40;33.00;;;16.13;;
19754;SDS011;10036;47.812;9.274;2023-02-15T09:04:07;32.63;;;16.17;;
19754;SDS011;10036;47.812;9.274;2023-02-15T09:06:36;58.00;;;17.20;;
19754;SDS011;10036;47.812;9.274;2023-02-15T09:09:04;51.83;;;16.80;;
19754;SDS011;10036;47.812;9.274;2023-02-15T09:11:33;33.57;;;16.50;;
19754;SDS011;10036;47.812;9.274;2023-02-15T09:14:01;32.40;;;16.40;;
19754;SDS011;10036;47.812;9.274;2023-02-15T09:16:31;28.80;;;15.35;;
19754;SDS011;10036;47.812;9.274;2023-02-15T09:18:59;26.45;;;14.73;;
19754;SDS011;10036;47.812;9.274;2023-02-15T09:21:27;35.88;;;15.55;;
19754;SDS011;10036;47.812;9.274;2023-02-15T09:23:57;71.85;;;16.17;;
19754;SDS011;10036;47.812;9.274;2023-02-15T09:26:26;39.28;;;15.15;;
19754;SDS011;10036;47.812;9.274;2023-02-15T09:28:55;70.53;;;15.52;;
19754;SDS011;10036;47.812;9.274;2023-02-15T09:31:24;26.35;;;15.20;;
19754;SDS011;10036;47.812;9.274;2023-02-15T09:33:53;27.02;;;15.43;;
19754;SDS011;10036;47.812;9.274;2023-02-15T09:36:21;31.48;;;16.85;;
19754;SDS011;10036;47.812;9.274;2023-02-15T09:38:52;36.17;;;16.15;;
19754;SDS011;10036;47.812;9.274;2023-02-15T09:44:25;38.65;;;16.48;;
19754;SDS011;10036;47.812;9.274;2023-02-15T09:47:09;37.40;;;15.55;;
19754;SDS011;10036;47.812;9.274;2023-02-15T09:49:58;40.03;;;16.00;;
19754;SDS011;10036;47.812;9.274;2023-02-15T09:52:34;72.72;;;15.50;;
19754;SDS011;10036;47.812;9.274;2023-02-15T09:55:16;25.05;;;14.40;;
19754;SDS011;10036;47.812;9.274;2023-02-15T09:57:58;24.42;;;14.98;;
19754;SDS011;10036;47.812;9.274;2023-02-15T10:00:35;33.88;;;15.38;;
19754;SDS011;10036;47.812;9.274;2023-02-15T10:03:17;52.13;;;16.38;;
19754;SDS011;10036;47.812;9.274;2023-02-15T10:05:55;32.67;;;15.48;;
19754;SDS011;10036;47.812;9.274;2023-02-15T10:08:35;31.13;;;14.70;;
19754;SDS011;10036;47.812;9.274;2023-02-15T10:11:11;30.83;;;15.82;;
19754;SDS011;10036;47.812;9.274;2023-02-15T10:14:02;28.52;;;16.13;;
19754;SDS011;10036;47.812;9.274;2023-02-15T10:16:50;44.00;;;16.98;;
19754;SDS011;10036;47.812;9.274;2023-02-15T10:19:27;27.52;;;16.60;;
19754;SDS011;10036;47.812;9.274;2023-02-15T10:22:04;30.95;;;16.05;;
19754;SDS011;10036;47.812;9.274;2023-02-15T10:24:51;41.58;;;19.15;;
19754;SDS011;10036;47.812;9.274;2023-02-15T10:27:32;33.03;;;17.25;;
19754;SDS011;10036;47.812;9.274;2023-02-15T10:30:08;30.63;;;17.30;;
19754;SDS011;10036;47.812;9.274;2023-02-15T10:32:38;27.75;;;16.48;;
19754;SDS011;10036;47.812;9.274;2023-02-15T10:35:19;33.58;;;17.60;;
19754;SDS011;10036;47.812;9.274;2023-02-15T10:37:53;36.55;;;18.45;;
19754;SDS011;10036;47.812;9.274;2023-02-15T10:40:28;32.45;;;18.30;;
19754;SDS011;10036;47.812;9.274;2023-02-15T10:43:07;32.13;;;18.05;;
19754;SDS011;10036;47.812;9.274;2023-02-15T10:45:48;37.70;;;19.45;;
19754;SDS011;10036;47.812;9.274;2023-02-15T10:48:29;33.17;;;17.90;;
19754;SDS011;10036;47.812;9.274;2023-02-15T10:51:10;36.17;;;19.70;;
19754;SDS011;10036;47.812;9.274;2023-02-15T10:53:53;30.20;;;17.30;;
19754;SDS011;10036;47.812;9.274;2023-02-15T10:56:34;31.98;;;17.63;;
19754;SDS011;10036;47.812;9.274;2023-02-15T10:59:22;26.35;;;15.88;;
19754;SDS011;10036;47.812;9.274;2023-02-15T11:02:01;27.38;;;16.48;;
19754;SDS011;10036;47.812;9.274;2023-02-15T11:04:43;26.65;;;16.38;;
19754;SDS011;10036;47.812;9.274;2023-02-15T11:07:17;26.65;;;16.17;;
19754;SDS011;10036;47.812;9.274;2023-02-15T11:09:50;23.45;;;15.15;;
19754;SDS011;10036;47.812;9.274;2023-02-15T11:12:24;24.13;;;15.07;;
19754;SDS011;10036;47.812;9.274;2023-02-15T11:14:55;22.42;;;14.15;;
19754;SDS011;10036;47.812;9.274;2023-02-15T11:17:25;29.42;;;17.05;;
19754;SDS011;10036;47.812;9.274;2023-02-15T11:19:58;31.30;;;17.42;;
19754;SDS011;10036;47.812;9.274;2023-02-15T11:22:33;31.63;;;18.75;;
19754;SDS011;10036;47.812;9.274;2023-02-15T11:25:02;28.13;;;16.20;;
19754;SDS011;10036;47.812;9.274;2023-02-15T11:27:40;29.23;;;17.65;;
19754;SDS011;10036;47.812;9.274;2023-02-15T11:30:10;37.25;;;19.42;;
19754;SDS011;10036;47.812;9.274;2023-02-15T11:32:40;31.63;;;18.10;;
19754;SDS011;10036;47.812;9.274;2023-02-15T11:35:19;30.30;;;18.30;;
19754;SDS011;10036;47.812;9.274;2023-02-15T11:37:53;31.50;;;17.77;;
19754;SDS011;10036;47.812;9.274;2023-02-15T11:40:25;31.38;;;18.17;;
19754;SDS011;10036;47.812;9.274;2023-02-15T11:42:55;33.63;;;19.58;;
19754;SDS011;10036;47.812;9.274;2023-02-15T11:45:25;34.22;;;19.60;;
19754;SDS011;10036;47.812;9.274;2023-02-15T11:47:53;33.90;;;19.58;;
19754;SDS011;10036;47.812;9.274;2023-02-15T11:50:23;32.83;;;19.63;;
19754;SDS011;10036;47.812;9.274;2023-02-15T11:52:52;28.52;;;17.83;;
19754;SDS011;10036;47.812;9.274;2023-02-15T11:55:24;32.97;;;19.20;;
19754;SDS011;10036;47.812;9.274;2023-02-15T11:57:52;32.33;;;18.65;;
19754;SDS011;10036;47.812;9.274;2023-02-15T12:00:25;35.90;;;20.48;;
19754;SDS011;10036;47.812;9.274;2023-02-15T12:03:01;38.75;;;20.73;;
19754;SDS011;10036;47.812;9.274;2023-02-15T12:05:42;32.90;;;19.30;;
19754;SDS011;10036;47.812;9.274;2023-02-15T12:08:13;35.05;;;21.23;;
19754;SDS011;10036;47.812;9.274;2023-02-15T12:10:45;36.60;;;20.77;;
19754;SDS011;10036;47.812;9.274;2023-02-15T12:13:22;37.22;;;21.33;;
19754;SDS011;10036;47.812;9.274;2023-02-15T12:15:50;31.45;;;19.45;;
19754;SDS011;10036;47.812;9.274;2023-02-15T12:18:20;32.47;;;19.35;;
19754;SDS011;10036;47.812;9.274;2023-02-15T12:20:59;30.15;;;18.17;;
19754;SDS011;10036;47.812;9.274;2023-02-15T12:23:30;34.05;;;18.70;;
19754;SDS011;10036;47.812;9.274;2023-02-15T12:25:58;30.17;;;18.45;;
19754;SDS011;10036;47.812;9.274;2023-02-15T12:28:26;31.95;;;19.35;;
19754;SDS011;10036;47.812;9.274;2023-02-15T12:30:58;31.42;;;18.58;;
19754;SDS011;10036;47.812;9.274;2023-02-15T12:33:27;27.35;;;17.42;;
19754;SDS011;10036;47.812;9.274;2023-02-15T12:35:57;34.40;;;19.33;;
19754;SDS011;10036;47.812;9.274;2023-02-15T12:38:29;37.45;;;21.63;;
19754;SDS011;10036;47.812;9.274;2023-02-15T12:40:57;29.60;;;17.38;;
19754;SDS011;10036;47.812;9.274;2023-02-15T12:43:25;28.65;;;17.17;;
19754;SDS011;10036;47.812;9.274;2023-02-15T12:45:57;31.58;;;19.23;;
19754;SDS011;10036;47.812;9.274;2023-02-15T12:48:44;35.90;;;20.75;;
19754;SDS011;10036;47.812;9.274;2023-02-15T12:51:14;34.60;;;20.85;;
19754;SDS011;10036;47.812;9.274;2023-02-15T12:53:41;36.28;;;21.88;;
19754;SDS011;10036;47.812;9.274;2023-02-15T12:56:09;30.17;;;17.38;;
19754;SDS011;10036;47.812;9.274;2023-02-15T12:58:37;30.38;;;19.23;;
19754;SDS011;10036;47.812;9.274;2023-02-15T13:01:09;33.65;;;20.02;;
19754;SDS011;10036;47.812;9.274;2023-02-15T13:03:40;26.33;;;17.73;;
19754;SDS011;10036;47.812;9.274;2023-02-15T13:06:24;28.52;;;18.27;;
19754;SDS011;10036;47.812;9.274;2023-02-15T13:08:52;30.58;;;19.58;;
19754;SDS011;10036;47.812;9.274;2023-02-15T13:11:22;31.10;;;19.08;;
19754;SDS011;10036;47.812;9.274;2023-02-15T13:13:52;31.42;;;19.08;;
19754;SDS011;10036;47.812;9.274;2023-02-15T13:16:24;32.10;;;18.27;;
19754;SDS011;10036;47.812;9.274;2023-02-15T13:18:56;29.60;;;17.77;;
19754;SDS011;10036;47.812;9.274;2023-02-15T13:21:31;31.63;;;19.63;;
19754;SDS011;10036;47.812;9.274;2023-02-15T13:24:04;30.95;;;20.73;;
19754;SDS011;10036;47.812;9.274;2023-02-15T13:26:34;31.35;;;18.98;;
19754;SDS011;10036;47.812;9.274;2023-02-15T13:29:04;30.90;;;18.55;;
19754;SDS011;10036;47.812;9.274;2023-02-15T13:31:34;29.58;;;18.83;;
19754;SDS011;10036;47.812;9.274;2023-02-15T13:34:03;27.38;;;17.80;;
19754;SDS011;10036;47.812;9.274;2023-02-15T13:36:40;30.88;;;17.80;;
19754;SDS011;10036;47.812;9.274;2023-02-15T13:39:18;26.98;;;17.50;;
19754;SDS011;10036;47.812;9.274;2023-02-15T13:41:52;25.45;;;17.15;;
19754;SDS011;10036;47.812;9.274;2023-02-15T13:44:39;29.15;;;17.65;;
19754;SDS011;10036;47.812;9.274;2023-02-15T13:47:25;25.13;;;16.63;;
19754;SDS011;10036;47.812;9.274;2023-02-15T13:50:03;26.15;;;18.25;;
19754;SDS011;10036;47.812;9.274;2023-02-15T13:52:41;28.88;;;18.45;;
19754;SDS011;10036;47.812;9.274;2023-02-15T13:55:21;28.27;;;17.30;;
19754;SDS011;10036;47.812;9.274;2023-02-15T13:58:01;28.73;;;18.08;;
19754;SDS011;10036;47.812;9.274;2023-02-15T14:00:43;29.10;;;18.63;;
19754;SDS011;10036;47.812;9.274;2023-02-15T14:03:23;26.38;;;17.80;;
19754;SDS011;10036;47.812;9.274;2023-02-15T14:06:14;27.00;;;17.23;;
19754;SDS011;10036;47.812;9.274;2023-02-15T14:09:09;26.13;;;17.48;;
19754;SDS011;10036;47.812;9.274;2023-02-15T14:11:48;27.15;;;17.77;;
19754;SDS011;10036;47.812;9.274;2023-02-15T14:14:28;27.35;;;17.95;;
19754;SDS011;10036;47.812;9.274;2023-02-15T14:17:07;28.73;;;17.75;;
19754;SDS011;10036;47.812;9.274;2023-02-15T14:19:42;27.20;;;17.25;;
19754;SDS011;10036;47.812;9.274;2023-02-15T14:22:17;27.75;;;17.05;;
19754;SDS011;10036;47.812;9.274;2023-02-15T14:24:54;24.95;;;17.15;;
19754;SDS011;10036;47.812;9.274;2023-02-15T14:27:45;25.17;;;17.20;;
19754;SDS011;10036;47.812;9.274;2023-02-15T14:30:21;24.55;;;17.35;;
19754;SDS011;10036;47.812;9.274;2023-02-15T14:32:52;24.80;;;16.70;;
19754;SDS011;10036;47.812;9.274;2023-02-15T14:35:21;24.73;;;16.73;;
19754;SDS011;10036;47.812;9.274;2023-02-15T14:37:52;24.98;;;16.67;;
19754;SDS011;10036;47.812;9.274;2023-02-15T14:40:30;25.13;;;17.13;;
19754;SDS011;10036;47.812;9.274;2023-02-15T14:43:24;24.95;;;16.58;;
19754;SDS011;10036;47.812;9.274;2023-02-15T14:46:00;23.10;;;15.95;;
19754;SDS011;10036;47.812;9.274;2023-02-15T14:48:37;27.70;;;17.35;;
19754;SDS011;10036;47.812;9.274;2023-02-15T14:51:05;28.08;;;17.60;;
19754;SDS011;10036;47.812;9.274;2023-02-15T14:53:36;22.85;;;16.23;;
19754;SDS011;10036;47.812;9.274;2023-02-15T14:56:15;23.58;;;16.73;;